Ed's Weather Station

Ed's Weather Station
Located south of Fulton, MO
Lat. 38.75234 N
Lon. 91.96758 W
Elevation 787 ft

GR3 Radar

Current 24 Hours Yesterday Last 48 Hours Last 72 Hours Last 30 Days Yearly Rainfall Yearly Temp Trends Monthly Wind Direction Last 30 Days Temperature Solar Data
Highs and Lows Trends Sun & Moon Rise\Set Times Moon\Solar Info
Local Weather Advisories Area Forecast Discussion Hazardous Weather Outlook U.S. Severe Weather Storm Prediction Center
All Time Records Monthly Records Yearly Records
Weather Gauges MW Weather Network
Local Area Conditions Printable Weather Flyer MO River Information
About Ed's Weather Weather Station Status Weather Graphic Personal Weather Sites
Kansas City NEXRAD Radar Local/Regional Radar Satellite Images
Weather Underground Data Rain Detail Chart
NWS Forecast Details Ed's Forecast Details UV Forecast Pollen Forecast Space Weather
Member of the following organizations:





Local Links:
Callaway County Sheriff

Eds Weather Station - WU Station History
Station Historical Data
 
Daily Summary for November 16, 2018 Units:  English    Metric   Both
« Previous Day
Next Day »
Daily Weekly Monthly Yearly Custom
  Current: High: Low: Average:
Temperature: 34.9 °F TemperatureF °F 30.5 °F 41.1 °F
Dew Point: 32.3 °F DewpointF °F 25.8 °F 33.7 °F
Humidity: 90% Humidity% 54% 76%
Wind Speed: 0.0mph WindSpeedMPHmph 0.0mph 2.1mph
Wind Gust: 0.0mph WindSpeedGustMPHmph - -
WindCalm - - WSW
Pressure: 30.05 in PressureIn in 29.99 in -
Precipitation: 0.00 in      
Historical Graphs
 
 
Tabular Data for November 16, 2018
Time Temperature Dew Point Pressure Wind Wind Speed Wind Gust Humidity Rainfall Rate (Hourly) solar Conditions
TemperatureF °F DewpointF °F PressureIn in Calm     Humidity% HourlyPrecipIn in SolarRadiationWatts/m^2 W/m2 Conditions
00:04 30.6 °F 25.8 °F 30.00 in Calm     82% 0.00 in 0.00 W/m2 RA
00:09 30.8 °F 26.0 °F 29.99 in Calm     82% 0.00 in 0.00 W/m2 RA
00:14 30.9 °F 26.1 °F 30.00 in Calm     82% 0.00 in 0.00 W/m2 CLR
00:19 30.8 °F 26.2 °F 30.00 in Calm     83% 0.00 in 0.00 W/m2 CLR
00:24 30.7 °F 26.4 °F 30.00 in Calm     84% 0.00 in 0.00 W/m2 CLR
00:29 30.6 °F 26.3 °F 30.00 in Calm     84% 0.00 in 0.00 W/m2 CLR
00:34 30.5 °F 26.5 °F 30.00 in Calm     85% 0.00 in 0.00 W/m2 CLR
00:39 30.5 °F 26.8 °F 30.00 in Calm     86% 0.00 in 0.00 W/m2 CLR
00:44 30.5 °F 26.8 °F 30.00 in Calm     86% 0.00 in 0.00 W/m2 CLR
00:49 30.5 °F 26.8 °F 30.00 in Calm     86% 0.00 in 0.00 W/m2 CLR
00:54 30.6 °F 27.2 °F 30.00 in Calm     87% 0.00 in 0.00 W/m2 CLR
00:59 31.2 °F 27.5 °F 30.00 in Calm     86% 0.00 in 0.00 W/m2 CLR
01:04 32.0 °F 28.0 °F 30.00 in Calm     85% 0.00 in 0.00 W/m2 CLR
01:09 32.7 °F 28.1 °F 30.00 in Calm     83% 0.00 in 0.00 W/m2 CLR
01:14 33.2 °F 28.3 °F 30.00 in SSE 1.2 mph   82% 0.00 in 0.00 W/m2 CLR
01:19 33.7 °F 28.5 °F 30.00 in Calm     81% 0.00 in 0.00 W/m2 CLR
01:24 34.0 °F 28.8 °F 30.00 in Calm     81% 0.00 in 0.00 W/m2 CLR
01:29 34.3 °F 28.8 °F 30.00 in SSE 3.5 mph 1.1 mph 80% 0.00 in 0.00 W/m2 CLR
01:34 34.6 °F 28.8 °F 30.00 in SSE 3.5 mph 0.9 mph 79% 0.00 in 0.00 W/m2 CLR
01:39 34.7 °F 28.9 °F 30.00 in SSE 3.5 mph 0.6 mph 79% 0.00 in 0.00 W/m2 CLR
01:44 34.7 °F 29.2 °F 30.00 in SW 3.5 mph 1.9 mph 80% 0.00 in 0.00 W/m2 CLR
01:49 34.7 °F 29.2 °F 30.00 in SW 1.2 mph 0.1 mph 80% 0.00 in 0.00 W/m2 CLR
01:54 34.7 °F 29.2 °F 30.00 in SW 2.3 mph 0.7 mph 80% 0.00 in 0.00 W/m2 CLR
01:59 34.8 °F 29.3 °F 30.01 in SW 3.0 mph 1.4 mph 80% 0.00 in 0.00 W/m2 CLR
02:04 34.9 °F 29.4 °F 30.01 in SW 3.5 mph 1.9 mph 80% 0.00 in 0.00 W/m2 CLR
02:09 35.0 °F 29.5 °F 30.01 in SW 3.5 mph 2.1 mph 80% 0.00 in 0.00 W/m2 CLR
02:14 35.1 °F 29.6 °F 30.01 in SW 3.5 mph 1.5 mph 80% 0.00 in 0.00 W/m2 CLR
02:19 35.1 °F 29.6 °F 30.01 in SW 3.5 mph 1.7 mph 80% 0.00 in 0.00 W/m2 CLR
02:24 35.2 °F 29.6 °F 30.01 in SW 3.5 mph 2.1 mph 80% 0.00 in 0.00 W/m2 CLR
02:29 35.2 °F 29.6 °F 30.02 in SW 3.5 mph 2.4 mph 80% 0.00 in 0.00 W/m2 CLR
02:34 35.1 °F 29.6 °F 30.02 in SW 3.5 mph 2.1 mph 80% 0.00 in 0.00 W/m2 CLR
02:39 35.2 °F 30.0 °F 30.02 in SW 3.5 mph 2.1 mph 81% 0.00 in 0.00 W/m2 CLR
02:44 35.1 °F 29.9 °F 30.02 in SW 3.5 mph 2.4 mph 81% 0.00 in 0.00 W/m2 CLR
02:49 35.2 °F 30.3 °F 30.02 in SW 3.5 mph 2.2 mph 82% 0.00 in 0.00 W/m2 CLR
02:54 35.4 °F 30.5 °F 30.02 in WSW 3.5 mph 2.4 mph 82% 0.00 in 0.00 W/m2 CLR
02:59 35.6 °F 30.6 °F 30.02 in WSW 3.5 mph 2.2 mph 82% 0.00 in 0.00 W/m2 CLR
03:04 35.7 °F 30.4 °F 30.02 in WSW 3.5 mph 2.6 mph 81% 0.00 in 0.00 W/m2 CLR
03:09 35.7 °F 30.4 °F 30.02 in WSW 3.5 mph 2.2 mph 81% 0.00 in 0.00 W/m2 CLR
03:14 35.7 °F 30.7 °F 30.02 in WSW 3.5 mph 2.2 mph 82% 0.00 in 0.00 W/m2 CLR
03:19 35.7 °F 30.7 °F 30.02 in WSW 3.5 mph 2.1 mph 82% 0.00 in 0.00 W/m2 CLR
03:24 35.9 °F 30.9 °F 30.02 in WSW 3.5 mph 2.6 mph 82% 0.00 in 0.00 W/m2 CLR
03:29 36.0 °F 31.0 °F 30.02 in WSW 3.5 mph 2.2 mph 82% 0.00 in 0.00 W/m2 CLR
03:34 36.1 °F 31.1 °F 30.02 in WSW 3.5 mph 2.2 mph 82% 0.00 in 0.00 W/m2 CLR
03:39 36.1 °F 31.1 °F 30.02 in WSW 3.5 mph 2.7 mph 82% 0.00 in 0.00 W/m2 CLR
03:44 36.2 °F 31.2 °F 30.02 in WSW 3.5 mph 2.4 mph 82% 0.00 in 0.00 W/m2 CLR
03:49 36.1 °F 31.1 °F 30.02 in WSW 3.5 mph 2.2 mph 82% 0.00 in 0.00 W/m2 CLR
03:54 36.1 °F 31.1 °F 30.02 in WSW 3.5 mph 2.6 mph 82% 0.00 in 0.00 W/m2 CLR
03:59 36.1 °F 31.1 °F 30.02 in WSW 3.5 mph 2.1 mph 82% 0.00 in 0.00 W/m2 CLR
04:04 36.0 °F 31.0 °F 30.02 in WSW 3.5 mph 2.2 mph 82% 0.00 in 0.00 W/m2 CLR
04:09 36.0 °F 31.3 °F 30.02 in WSW 3.5 mph 2.2 mph 83% 0.00 in 0.00 W/m2 CLR
04:14 36.0 °F 31.3 °F 30.02 in WSW 2.3 mph 1.7 mph 83% 0.00 in 0.00 W/m2 CLR
04:19 35.9 °F 31.2 °F 30.03 in WSW 3.5 mph 1.8 mph 83% 0.00 in 0.00 W/m2 CLR
04:24 35.9 °F 31.2 °F 30.03 in WSW 3.5 mph 2.0 mph 83% 0.00 in 0.00 W/m2 CLR
04:29 35.9 °F 31.2 °F 30.03 in WSW 3.5 mph 2.6 mph 83% 0.00 in 0.00 W/m2 CLR
04:34 35.9 °F 31.2 °F 30.03 in WSW 3.5 mph 2.2 mph 83% 0.00 in 0.00 W/m2 CLR
04:39 35.8 °F 31.1 °F 30.03 in WSW 3.5 mph 2.4 mph 83% 0.00 in 0.00 W/m2 CLR
04:44 35.8 °F 31.4 °F 30.03 in WSW 3.5 mph 2.0 mph 84% 0.00 in 0.00 W/m2 CLR
04:49 35.9 °F 31.5 °F 30.04 in WSW 3.5 mph 1.5 mph 84% 0.00 in 0.00 W/m2 CLR
04:54 35.9 °F 31.5 °F 30.04 in West 2.3 mph 1.5 mph 84% 0.00 in 0.00 W/m2 CLR
04:59 35.9 °F 31.5 °F 30.04 in SW 3.5 mph 2.0 mph 84% 0.00 in 0.00 W/m2 CLR
05:04 35.8 °F 31.4 °F 30.04 in SW 2.3 mph 1.7 mph 84% 0.00 in 0.00 W/m2 CLR
05:09 35.7 °F 31.3 °F 30.04 in SW 2.3 mph 1.6 mph 84% 0.00 in 0.00 W/m2 CLR
05:14 35.7 °F 31.3 °F 30.04 in SW 3.5 mph 2.1 mph 84% 0.00 in 0.00 W/m2 CLR
05:19 35.6 °F 31.2 °F 30.04 in SW 3.5 mph 1.7 mph 84% 0.00 in 0.00 W/m2 CLR
05:24 35.5 °F 31.1 °F 30.05 in SW 2.3 mph 1.9 mph 84% 0.00 in 0.00 W/m2 CLR
05:29 35.4 °F 31.0 °F 30.05 in SW 2.3 mph 0.8 mph 84% 0.00 in 0.00 W/m2 CLR
05:34 35.1 °F 30.8 °F 30.05 in SW 2.3 mph 0.2 mph 84% 0.00 in 0.00 W/m2 CLR
05:39 34.7 °F 30.7 °F 30.05 in SW 3.5 mph 1.7 mph 85% 0.00 in 0.00 W/m2 CLR
05:44 34.7 °F 30.9 °F 30.05 in SW 1.2 mph 0.8 mph 86% 0.00 in 0.00 W/m2 CLR
05:49 34.6 °F 31.1 °F 30.05 in SW 3.5 mph 2.0 mph 87% 0.00 in 0.00 W/m2 CLR
05:54 34.8 °F 31.0 °F 30.05 in SW 2.0 mph 1.0 mph 86% 0.00 in 0.00 W/m2 CLR
05:59 34.6 °F 30.8 °F 30.05 in SW 2.3 mph 1.3 mph 86% 0.00 in 0.00 W/m2 CLR
06:04 34.3 °F 30.5 °F 30.05 in Calm     86% 0.00 in 0.00 W/m2 CLR
06:09 34.0 °F 30.5 °F 30.06 in SW 1.2 mph   87% 0.00 in 0.00 W/m2 CLR
06:14 33.7 °F 30.2 °F 30.06 in Calm     87% 0.00 in 0.00 W/m2 CLR
06:19 33.5 °F 30.3 °F 30.06 in Calm     88% 0.00 in 0.00 W/m2 CLR
06:24 33.3 °F 30.1 °F 30.06 in West 3.0 mph 1.0 mph 88% 0.00 in 0.00 W/m2 CLR
06:29 33.1 °F 30.2 °F 30.06 in West 2.3 mph 1.1 mph 89% 0.00 in 0.00 W/m2 CLR
06:34 33.1 °F 30.2 °F 30.06 in West 2.3 mph 0.6 mph 89% 0.00 in 0.00 W/m2 CLR
06:39 33.0 °F 30.1 °F 30.06 in West 2.3 mph 1.0 mph 89% 0.00 in 0.00 W/m2 CLR
06:44 33.0 °F 30.1 °F 30.06 in West 2.3 mph 1.1 mph 89% 0.00 in 0.00 W/m2 CLR
06:49 32.9 °F 30.3 °F 30.06 in West 2.3 mph   90% 0.00 in 0.00 W/m2 CLR
06:54 33.0 °F 30.4 °F 30.07 in West 3.5 mph 1.5 mph 90% 0.00 in 0.00 W/m2 CLR
06:59 32.9 °F 30.3 °F 30.07 in West 3.5 mph 1.0 mph 90% 0.00 in 0.00 W/m2 CLR
07:04 32.9 °F 30.3 °F 30.07 in WSW 2.3 mph 1.2 mph 90% 0.00 in 5.00 W/m2 CLR
07:09 32.9 °F 30.3 °F 30.07 in WSW 3.5 mph 1.6 mph 90% 0.00 in 7.00 W/m2 CLR
07:14 33.1 °F 30.8 °F 30.08 in SSW 2.3 mph 1.1 mph 91% 0.00 in 7.00 W/m2 CLR
07:19 33.2 °F 30.9 °F 30.08 in WSW 2.3 mph 1.2 mph 91% 0.00 in 9.00 W/m2 CLR
07:24 33.2 °F 30.6 °F 30.08 in WSW 2.3 mph 1.2 mph 90% 0.00 in 9.00 W/m2 CLR
07:29 33.2 °F 30.6 °F 30.09 in WSW 3.5 mph 1.6 mph 90% 0.00 in 11.00 W/m2 CLR
07:34 33.3 °F 30.7 °F 30.08 in West 2.3 mph 1.9 mph 90% 0.00 in 11.00 W/m2 CLR
07:39 33.5 °F 31.2 °F 30.08 in WNW 2.3 mph 1.1 mph 91% 0.00 in 12.00 W/m2 CLR
07:44 33.7 °F 31.1 °F 30.09 in WNW 3.5 mph 1.7 mph 90% 0.00 in 12.00 W/m2 CLR
07:49 33.9 °F 31.6 °F 30.09 in West 2.3 mph 1.4 mph 91% 0.00 in 12.00 W/m2 CLR
07:54 34.2 °F 31.6 °F 30.09 in West 3.5 mph 1.3 mph 90% 0.00 in 14.00 W/m2 CLR
07:59 34.4 °F 31.8 °F 30.09 in West 3.5 mph 1.0 mph 90% 0.00 in 14.00 W/m2 CLR
08:04 34.6 °F 32.0 °F 30.10 in West 3.0 mph 1.5 mph 90% 0.00 in 14.00 W/m2 CLR
08:09 35.1 °F 32.5 °F 30.10 in West 3.5 mph 2.0 mph 90% 0.00 in 14.00 W/m2 CLR
08:14 35.3 °F 32.4 °F 30.10 in West 3.5 mph 1.3 mph 89% 0.00 in 16.00 W/m2 CLR
08:19 35.7 °F 32.8 °F 30.10 in WNW 3.5 mph 1.7 mph 89% 0.00 in 16.00 W/m2 CLR
08:24 36.3 °F 33.4 °F 30.10 in WSW 3.5 mph 1.6 mph 89% 0.00 in 16.00 W/m2 CLR
08:29 36.9 °F 33.7 °F 30.10 in NW 3.5 mph 1.8 mph 88% 0.00 in 16.00 W/m2 CLR
08:34 37.2 °F 33.7 °F 30.10 in West 3.5 mph 2.1 mph 87% 0.00 in 18.00 W/m2 CLR
08:39 37.7 °F 33.9 °F 30.10 in WSW 3.5 mph 3.0 mph 86% 0.00 in 18.00 W/m2 CLR
08:44 38.1 °F 34.0 °F 30.10 in WNW 3.5 mph 2.7 mph 85% 0.00 in 18.00 W/m2 CLR
08:49 38.4 °F 34.3 °F 30.11 in NW 6.9 mph 3.3 mph 85% 0.00 in 19.00 W/m2 CLR
08:54 38.8 °F 34.4 °F 30.11 in WNW 2.3 mph 1.5 mph 84% 0.00 in 21.00 W/m2 CLR
08:59 39.1 °F 34.7 °F 30.11 in NW 3.5 mph 1.5 mph 84% 0.00 in 26.00 W/m2 CLR
09:04 39.5 °F 34.8 °F 30.11 in NW 10.4 mph 3.3 mph 83% 0.00 in 28.00 W/m2 CLR
09:09 39.8 °F 35.1 °F 30.11 in West 3.5 mph 2.3 mph 83% 0.00 in 25.00 W/m2 CLR
09:14 40.2 °F 35.1 °F 30.11 in WNW 4.0 mph 2.3 mph 82% 0.00 in 28.00 W/m2 CLR
09:19 40.5 °F 35.4 °F 30.11 in West 3.5 mph 1.6 mph 82% 0.00 in 25.00 W/m2 CLR
09:24 40.9 °F 35.5 °F 30.11 in WNW 3.5 mph 2.8 mph 81% 0.00 in 35.00 W/m2 CLR
09:29 41.3 °F 35.6 °F 30.11 in West 4.0 mph 3.1 mph 80% 0.00 in 35.00 W/m2 CLR
09:34 41.6 °F 35.9 °F 30.11 in West 3.5 mph 0.4 mph 80% 0.00 in 102.00 W/m2 CLR
09:39 41.9 °F 35.9 °F 30.11 in WNW 3.5 mph 1.6 mph 79% 0.00 in 121.00 W/m2 CLR
09:44 42.3 °F 36.3 °F 30.11 in WNW 2.3 mph 0.9 mph 79% 0.00 in 302.00 W/m2 CLR
09:49 42.7 °F 36.0 °F 30.11 in SSW 3.5 mph 3.3 mph 77% 0.00 in 195.00 W/m2 CLR
09:54 43.2 °F 36.5 °F 30.11 in WSW 3.5 mph 1.9 mph 77% 0.00 in 181.00 W/m2 CLR
09:59 43.6 °F 36.5 °F 30.12 in WSW 3.5 mph 2.5 mph 76% 0.00 in 142.00 W/m2 CLR
10:04 43.8 °F 36.7 °F 30.11 in WNW 3.5 mph 0.7 mph 76% 0.00 in 153.00 W/m2 CLR
10:09 44.0 °F 36.6 °F 30.11 in WNW 3.5 mph 1.1 mph 75% 0.00 in 227.00 W/m2 CLR
10:14 44.2 °F 36.8 °F 30.11 in West 3.5 mph 1.4 mph 75% 0.00 in 97.00 W/m2 CLR
10:19 44.7 °F 36.9 °F 30.11 in SW 2.3 mph 1.5 mph 74% 0.00 in 56.00 W/m2 CLR
10:24 45.1 °F 37.3 °F 30.11 in SW 2.3 mph 0.8 mph 74% 0.00 in 58.00 W/m2 CLR
10:29 45.4 °F 37.2 °F 30.11 in SW 1.2 mph   73% 0.00 in 206.00 W/m2 CLR
10:34 45.7 °F 37.5 °F 30.11 in West 3.5 mph 1.1 mph 73% 0.00 in 492.00 W/m2 CLR
10:39 46.4 °F 37.5 °F 30.11 in SSW 3.5 mph 2.9 mph 71% 0.00 in 492.00 W/m2 CLR
10:44 46.9 °F 36.9 °F 30.11 in West 3.5 mph 1.0 mph 68% 0.00 in 501.00 W/m2 CLR
10:49 47.2 °F 38.3 °F 30.11 in West 3.5 mph 1.8 mph 71% 0.00 in 503.00 W/m2 CLR
10:54 48.2 °F 38.1 °F 30.11 in SW 4.6 mph 2.7 mph 68% 0.00 in 506.00 W/m2 CLR
10:59 48.9 °F 38.4 °F 30.11 in SW 3.5 mph 2.7 mph 67% 0.00 in 506.00 W/m2 CLR
11:04 49.6 °F 38.3 °F 30.11 in WSW 3.5 mph 2.3 mph 65% 0.00 in 497.00 W/m2 CLR
11:09 50.3 °F 39.0 °F 30.11 in WSW 3.5 mph 2.3 mph 65% 0.00 in 485.00 W/m2 CLR
11:14 50.6 °F 38.5 °F 30.11 in SW 3.5 mph 2.5 mph 63% 0.00 in 471.00 W/m2 CLR
11:19 50.9 °F 38.7 °F 30.11 in West 2.3 mph 0.9 mph 63% 0.00 in 454.00 W/m2 CLR
11:24 51.4 °F 38.8 °F 30.11 in WSW 3.5 mph 1.6 mph 62% 0.00 in 441.00 W/m2 CLR
11:29 51.9 °F 38.9 °F 30.11 in SW 4.0 mph 2.6 mph 61% 0.00 in 425.00 W/m2 CLR
11:34 52.1 °F 39.5 °F 30.11 in WSW 5.8 mph 3.6 mph 62% 0.00 in 417.00 W/m2 CLR
11:39 52.2 °F 38.7 °F 30.11 in SSW 2.3 mph 1.4 mph 60% 0.00 in 413.00 W/m2 CLR
11:44 52.6 °F 38.2 °F 30.10 in West 3.5 mph 1.1 mph 58% 0.00 in 413.00 W/m2 CLR
11:49 53.0 °F 39.0 °F 30.10 in WNW 4.0 mph 3.0 mph 59% 0.00 in 420.00 W/m2 CLR
11:54 52.8 °F 39.7 °F 30.10 in West 3.5 mph 2.8 mph 61% 0.00 in 425.00 W/m2 CLR
11:59 53.0 °F 39.5 °F 30.10 in West 3.5 mph 2.9 mph 60% 0.00 in 439.00 W/m2 CLR
12:04 53.1 °F 38.7 °F 30.10 in SW 3.5 mph 3.3 mph 58% 0.00 in 457.00 W/m2 CLR
12:09 53.4 °F 39.9 °F 30.09 in SW 3.5 mph 2.3 mph 60% 0.00 in 469.00 W/m2 CLR
12:14 53.6 °F 38.7 °F 30.09 in WNW 3.5 mph 2.6 mph 57% 0.00 in 485.00 W/m2 CLR
12:19 53.5 °F 39.1 °F 30.09 in West 2.3 mph 1.9 mph 58% 0.00 in 496.00 W/m2 CLR
12:24 54.0 °F 39.5 °F 30.09 in NW 4.0 mph 2.3 mph 58% 0.00 in 501.00 W/m2 CLR
12:29 54.4 °F 39.5 °F 30.09 in West 2.3 mph 2.1 mph 57% 0.00 in 499.00 W/m2 CLR
12:34 54.5 °F 39.6 °F 30.08 in WSW 3.5 mph 0.7 mph 57% 0.00 in 497.00 W/m2 CLR
12:39 54.6 °F 38.7 °F 30.08 in West 3.5 mph 3.5 mph 55% 0.00 in 490.00 W/m2 CLR
12:44 54.4 °F 39.0 °F 30.08 in WNW 5.0 mph 2.9 mph 56% 0.00 in 483.00 W/m2 CLR
12:49 53.9 °F 38.1 °F 30.08 in NW 2.3 mph 1.3 mph 55% 0.00 in 485.00 W/m2 CLR
12:54 54.1 °F 39.2 °F 30.08 in West 3.5 mph 2.3 mph 57% 0.00 in 475.00 W/m2 CLR
12:59 53.8 °F 38.5 °F 30.08 in NW 2.3 mph 1.9 mph 56% 0.00 in 473.00 W/m2 CLR
13:04 54.1 °F 39.6 °F 30.08 in West 3.5 mph 1.4 mph 58% 0.00 in 468.00 W/m2 CLR
13:09 54.4 °F 38.6 °F 30.07 in West 2.0 mph 0.9 mph 55% 0.00 in 434.00 W/m2 CLR
13:14 54.9 °F 39.5 °F 30.08 in West 4.6 mph 2.5 mph 56% 0.00 in 387.00 W/m2 CLR
13:19 54.7 °F 38.4 °F 30.07 in West 3.5 mph 2.2 mph 54% 0.00 in 121.00 W/m2 CLR
13:24 54.1 °F 38.7 °F 30.07 in WNW 3.5 mph 1.6 mph 56% 0.00 in 74.00 W/m2 CLR
13:29 53.9 °F 39.5 °F 30.07 in WSW 3.5 mph 2.7 mph 58% 0.00 in 62.00 W/m2 CLR
13:34 53.7 °F 38.8 °F 30.07 in NW 3.5 mph 2.9 mph 57% 0.00 in 102.00 W/m2 CLR
13:39 53.2 °F 38.4 °F 30.07 in NW 2.0 mph 0.6 mph 57% 0.00 in 104.00 W/m2 CLR
13:44 53.2 °F 38.4 °F 30.07 in WNW 3.5 mph 1.9 mph 57% 0.00 in 146.00 W/m2 CLR
13:49 53.3 °F 38.9 °F 30.07 in WSW 2.3 mph 1.4 mph 58% 0.00 in 67.00 W/m2 CLR
13:54 53.3 °F 38.9 °F 30.06 in SW 3.5 mph 2.2 mph 58% 0.00 in 146.00 W/m2 CLR
13:59 53.0 °F 38.2 °F 30.06 in SW 1.2 mph   57% 0.00 in 26.00 W/m2 CLR
14:04 52.9 °F 38.5 °F 30.06 in NNW 2.3 mph 2.0 mph 58% 0.00 in 49.00 W/m2 CLR
14:09 52.8 °F 37.5 °F 30.06 in SW 4.0 mph 3.6 mph 56% 0.00 in 62.00 W/m2 CLR
14:14 53.0 °F 37.3 °F 30.06 in WSW 3.5 mph 2.4 mph 55% 0.00 in 111.00 W/m2 CLR
14:19 52.9 °F 36.7 °F 30.06 in NW 4.0 mph 2.1 mph 54% 0.00 in 39.00 W/m2 CLR
14:24 52.5 °F 36.8 °F 30.06 in West 2.3 mph 0.8 mph 55% 0.00 in 56.00 W/m2 CLR
14:29 52.4 °F 38.5 °F 30.05 in South 3.5 mph 1.5 mph 59% 0.00 in 35.00 W/m2 CLR
14:34 52.6 °F 37.8 °F 30.06 in SW 3.5 mph 2.2 mph 57% 0.00 in 72.00 W/m2 CLR
14:39 52.6 °F 38.2 °F 30.06 in SW 2.3 mph 0.7 mph 58% 0.00 in 83.00 W/m2 CLR
14:44 52.8 °F 38.4 °F 30.06 in SW 3.5 mph 1.8 mph 58% 0.00 in 42.00 W/m2 CLR
14:49 52.7 °F 38.3 °F 30.06 in SW 1.2 mph 0.3 mph 58% 0.00 in 62.00 W/m2 CLR
14:54 52.3 °F 37.1 °F 30.06 in SW 2.0 mph 1.3 mph 56% 0.00 in 26.00 W/m2 CLR
14:59 52.0 °F 37.7 °F 30.05 in Calm     58% 0.00 in 18.00 W/m2 CLR
15:04 51.7 °F 37.4 °F 30.05 in SW 3.5 mph 1.8 mph 58% 0.00 in 19.00 W/m2 CLR
15:09 51.7 °F 38.7 °F 30.05 in SW 2.0 mph 1.1 mph 61% 0.00 in 39.00 W/m2 CLR
15:14 51.8 °F 38.3 °F 30.05 in SW 1.2 mph 0.4 mph 60% 0.00 in 44.00 W/m2 CLR
15:19 51.7 °F 36.5 °F 30.05 in SW 1.2 mph   56% 0.00 in 16.00 W/m2 CLR
15:24 51.4 °F 37.5 °F 30.05 in SW 1.2 mph 0.4 mph 59% 0.00 in 47.00 W/m2 CLR
15:29 51.4 °F 38.4 °F 30.05 in SW 2.3 mph 1.2 mph 61% 0.00 in 40.00 W/m2 CLR
15:34 51.2 °F 38.2 °F 30.05 in SW 1.2 mph 0.2 mph 61% 0.00 in 42.00 W/m2 CLR
15:39 51.0 °F 36.7 °F 30.06 in SW 2.3 mph 1.1 mph 58% 0.00 in 35.00 W/m2 CLR
15:44 50.8 °F 37.0 °F 30.05 in SW 2.3 mph 0.5 mph 59% 0.00 in 54.00 W/m2 CLR
15:49 50.5 °F 38.0 °F 30.06 in SW 2.3 mph 0.9 mph 62% 0.00 in 12.00 W/m2 CLR
15:54 50.1 °F 37.6 °F 30.06 in SW 1.2 mph 0.6 mph 62% 0.00 in 12.00 W/m2 CLR
15:59 49.7 °F 36.8 °F 30.06 in Calm     61% 0.00 in 11.00 W/m2 CLR
16:04 49.4 °F 36.9 °F 30.06 in Calm     62% 0.00 in 9.00 W/m2 CLR
16:09 49.2 °F 36.7 °F 30.06 in Calm     62% 0.00 in 9.00 W/m2 CLR
16:14 49.0 °F 36.9 °F 30.06 in Calm     63% 0.00 in 7.00 W/m2 CLR
16:19 48.8 °F 36.8 °F 30.05 in Calm     63% 0.00 in 7.00 W/m2 CLR
16:24 48.6 °F 36.6 °F 30.05 in Calm     63% 0.00 in 7.00 W/m2 CLR
16:29 48.4 °F 36.8 °F 30.05 in Calm     64% 0.00 in 5.00 W/m2 CLR
16:34 48.2 °F 36.6 °F 30.05 in Calm     64% 0.00 in 5.00 W/m2 CLR
16:39 48.0 °F 36.4 °F 30.05 in Calm     64% 0.00 in 0.00 W/m2 CLR
16:44 47.8 °F 36.2 °F 30.05 in Calm     64% 0.00 in 0.00 W/m2 CLR
16:49 47.6 °F 36.0 °F 30.05 in Calm     64% 0.00 in 0.00 W/m2 CLR
16:54 47.3 °F 36.1 °F 30.05 in Calm     65% 0.00 in 0.00 W/m2 CLR
16:59 47.1 °F 36.3 °F 30.05 in Calm     66% 0.00 in 0.00 W/m2 CLR
17:04 46.7 °F 36.3 °F 30.05 in SW 1.2 mph 0.4 mph 67% 0.00 in 0.00 W/m2 CLR
17:09 46.2 °F 36.2 °F 30.05 in Calm     68% 0.00 in 0.00 W/m2 CLR
17:14 45.6 °F 36.0 °F 30.05 in Calm     69% 0.00 in 0.00 W/m2 CLR
17:19 45.1 °F 35.9 °F 30.05 in Calm     70% 0.00 in 0.00 W/m2 CLR
17:24 44.7 °F 35.5 °F 30.05 in Calm     70% 0.00 in 0.00 W/m2 CLR
17:29 44.2 °F 35.4 °F 30.05 in Calm     71% 0.00 in 0.00 W/m2 CLR
17:34 43.8 °F 35.4 °F 30.05 in Calm     72% 0.00 in 0.00 W/m2 CLR
17:39 43.6 °F 35.5 °F 30.05 in SW 2.3 mph 0.9 mph 73% 0.00 in 0.00 W/m2 CLR
17:44 43.3 °F 35.6 °F 30.05 in Calm     74% 0.00 in 0.00 W/m2 CLR
17:49 43.1 °F 35.7 °F 30.05 in Calm     75% 0.00 in 0.00 W/m2 CLR
17:54 42.8 °F 35.4 °F 30.05 in SW 2.3 mph 1.0 mph 75% 0.00 in 0.00 W/m2 CLR
17:59 42.5 °F 35.8 °F 30.06 in Calm     77% 0.00 in 0.00 W/m2 CLR
18:04 42.3 °F 35.6 °F 30.05 in SW 1.2 mph 0.7 mph 77% 0.00 in 0.00 W/m2 CLR
18:09 42.1 °F 35.7 °F 30.05 in Calm     78% 0.00 in 0.00 W/m2 CLR
18:14 41.6 °F 35.2 °F 30.05 in Calm     78% 0.00 in 0.00 W/m2 CLR
18:19 41.0 °F 35.0 °F 30.05 in Calm     79% 0.00 in 0.00 W/m2 CLR
18:24 40.5 °F 34.5 °F 30.05 in Calm     79% 0.00 in 0.00 W/m2 CLR
18:29 40.0 °F 34.0 °F 30.05 in Calm     79% 0.00 in 0.00 W/m2 CLR
18:34 39.5 °F 33.8 °F 30.05 in Calm     80% 0.00 in 0.00 W/m2 CLR
18:39 39.3 °F 34.0 °F 30.05 in Calm     81% 0.00 in 0.00 W/m2 CLR
18:44 39.0 °F 34.0 °F 30.05 in Calm     82% 0.00 in 0.00 W/m2 CLR
18:49 38.7 °F 33.7 °F 30.06 in Calm     82% 0.00 in 0.00 W/m2 CLR
18:54 38.5 °F 33.5 °F 30.06 in Calm     82% 0.00 in 0.00 W/m2 CLR
18:59 38.4 °F 33.7 °F 30.06 in Calm     83% 0.00 in 0.00 W/m2 CLR
19:04 38.4 °F 34.0 °F 30.06 in Calm     84% 0.00 in 0.00 W/m2 CLR
19:09 38.4 °F 34.0 °F 30.06 in Calm     84% 0.00 in 0.00 W/m2 CLR
19:14 38.3 °F 33.9 °F 30.06 in Calm     84% 0.00 in 0.00 W/m2 CLR
19:19 38.1 °F 33.7 °F 30.07 in Calm     84% 0.00 in 0.00 W/m2 CLR
19:24 37.8 °F 34.0 °F 30.07 in Calm     86% 0.00 in 0.00 W/m2 CLR
19:29 37.6 °F 33.8 °F 30.06 in Calm     86% 0.00 in 0.00 W/m2 CLR
19:34 37.4 °F 33.6 °F 30.06 in Calm     86% 0.00 in 0.00 W/m2 CLR
19:39 37.0 °F 33.2 °F 30.06 in Calm     86% 0.00 in 0.00 W/m2 CLR
19:44 36.7 °F 33.2 °F 30.06 in Calm     87% 0.00 in 0.00 W/m2 CLR
19:49 36.4 °F 32.6 °F 30.06 in Calm     86% 0.00 in 0.00 W/m2 CLR
19:54 36.2 °F 32.7 °F 30.06 in Calm     87% 0.00 in 0.00 W/m2 CLR
19:59 36.0 °F 32.8 °F 30.05 in Calm     88% 0.00 in 0.00 W/m2 CLR
20:04 36.0 °F 33.1 °F 30.06 in Calm     89% 0.00 in 0.00 W/m2 CLR
20:09 36.0 °F 33.1 °F 30.05 in Calm     89% 0.00 in 0.00 W/m2 CLR
20:14 35.8 °F 32.6 °F 30.05 in Calm     88% 0.00 in 0.00 W/m2 CLR
20:19 35.7 °F 32.5 °F 30.05 in Calm     88% 0.00 in 0.00 W/m2 CLR
20:24 35.6 °F 32.7 °F 30.05 in Calm     89% 0.00 in 0.00 W/m2 CLR
20:29 35.6 °F 32.7 °F 30.05 in Calm     89% 0.00 in 0.00 W/m2 CLR
20:34 35.5 °F 32.6 °F 30.06 in Calm     89% 0.00 in 0.00 W/m2 CLR
20:39 35.5 °F 32.9 °F 30.06 in Calm     90% 0.00 in 0.00 W/m2 CLR
20:44 35.5 °F 32.9 °F 30.06 in Calm     90% 0.00 in 0.00 W/m2 CLR
20:49 35.4 °F 32.8 °F 30.06 in Calm     90% 0.00 in 0.00 W/m2 CLR
20:54 35.3 °F 32.7 °F 30.06 in Calm     90% 0.00 in 0.00 W/m2 CLR
20:59 35.2 °F 32.6 °F 30.06 in Calm     90% 0.00 in 0.00 W/m2 CLR
21:04 35.0 °F 32.4 °F 30.05 in Calm     90% 0.00 in 0.00 W/m2 CLR
21:09 34.9 °F 32.3 °F 30.05 in Calm     90% 0.00 in 0.00 W/m2 CLR
Fulton, MO, USA
Compliments of Weather Underground - 2 mb